sensor_id;sensor_type;location;lat;lon;timestamp;temperature;humidity
56256;DHT22;57229;51.432;-2.598;2022-10-26T00:01:48;17.90;99.90
56256;DHT22;57229;51.432;-2.598;2022-10-26T00:04:14;17.90;99.90
56256;DHT22;57229;51.432;-2.598;2022-10-26T00:10:10;17.90;99.90
56256;DHT22;57229;51.432;-2.598;2022-10-26T00:12:35;17.90;99.90
56256;DHT22;57229;51.432;-2.598;2022-10-26T00:15:01;17.90;99.90
56256;DHT22;57229;51.432;-2.598;2022-10-26T00:17:27;17.90;99.90
56256;DHT22;57229;51.432;-2.598;2022-10-26T00:19:53;17.90;99.90
56256;DHT22;57229;51.432;-2.598;2022-10-26T00:22:19;17.90;99.90
56256;DHT22;57229;51.432;-2.598;2022-10-26T00:24:45;17.90;99.90
56256;DHT22;57229;51.432;-2.598;2022-10-26T00:27:11;17.90;99.90
56256;DHT22;57229;51.432;-2.598;2022-10-26T00:29:37;17.90;99.90
56256;DHT22;57229;51.432;-2.598;2022-10-26T00:32:05;17.90;99.90
56256;DHT22;57229;51.432;-2.598;2022-10-26T00:34:31;17.90;99.90
56256;DHT22;57229;51.432;-2.598;2022-10-26T00:36:57;17.90;99.90
56256;DHT22;57229;51.432;-2.598;2022-10-26T00:39:23;17.90;99.90
56256;DHT22;57229;51.432;-2.598;2022-10-26T00:41:49;17.90;99.90
56256;DHT22;57229;51.432;-2.598;2022-10-26T00:50:44;18.00;99.90
56256;DHT22;57229;51.432;-2.598;2022-10-26T00:53:26;18.00;99.90
56256;DHT22;57229;51.432;-2.598;2022-10-26T00:56:11;18.00;99.90
56256;DHT22;57229;51.432;-2.598;2022-10-26T00:58:37;18.00;99.90
56256;DHT22;57229;51.432;-2.598;2022-10-26T01:01:03;18.00;99.90
56256;DHT22;57229;51.432;-2.598;2022-10-26T01:03:29;18.00;99.90
56256;DHT22;57229;51.432;-2.598;2022-10-26T01:05:58;18.00;99.90
56256;DHT22;57229;51.432;-2.598;2022-10-26T01:08:49;18.00;99.90
56256;DHT22;57229;51.432;-2.598;2022-10-26T01:11:16;18.00;99.90
56256;DHT22;57229;51.432;-2.598;2022-10-26T01:13:45;18.00;99.90
56256;DHT22;57229;51.432;-2.598;2022-10-26T01:21:46;18.00;99.90
56256;DHT22;57229;51.432;-2.598;2022-10-26T01:30:12;18.00;99.90
56256;DHT22;57229;51.432;-2.598;2022-10-26T01:35:33;18.00;99.90
56256;DHT22;57229;51.432;-2.598;2022-10-26T01:41:05;18.00;99.90
56256;DHT22;57229;51.432;-2.598;2022-10-26T01:43:30;18.20;99.90
56256;DHT22;57229;51.432;-2.598;2022-10-26T01:46:03;18.00;99.90
56256;DHT22;57229;51.432;-2.598;2022-10-26T01:48:31;18.00;99.90
56256;DHT22;57229;51.432;-2.598;2022-10-26T01:50:58;18.00;99.90
56256;DHT22;57229;51.432;-2.598;2022-10-26T01:53:29;18.00;99.90
56256;DHT22;57229;51.432;-2.598;2022-10-26T01:55:55;18.00;99.90
56256;DHT22;57229;51.432;-2.598;2022-10-26T02:15:21;17.90;99.90
56256;DHT22;57229;51.432;-2.598;2022-10-26T02:17:50;18.00;99.90
56256;DHT22;57229;51.432;-2.598;2022-10-26T02:20:27;18.00;99.90
56256;DHT22;57229;51.432;-2.598;2022-10-26T02:22:57;18.00;99.90
56256;DHT22;57229;51.432;-2.598;2022-10-26T02:25:36;17.90;99.90
56256;DHT22;57229;51.432;-2.598;2022-10-26T02:28:10;17.90;99.90
56256;DHT22;57229;51.432;-2.598;2022-10-26T02:30:41;17.90;99.90
56256;DHT22;57229;51.432;-2.598;2022-10-26T02:33:11;18.00;99.90
56256;DHT22;57229;51.432;-2.598;2022-10-26T02:35:40;17.90;99.90
56256;DHT22;57229;51.432;-2.598;2022-10-26T02:38:10;17.90;99.90
56256;DHT22;57229;51.432;-2.598;2022-10-26T02:43:56;17.90;99.90
56256;DHT22;57229;51.432;-2.598;2022-10-26T02:46:27;17.90;99.90
56256;DHT22;57229;51.432;-2.598;2022-10-26T02:48:57;17.90;99.90
56256;DHT22;57229;51.432;-2.598;2022-10-26T02:51:28;17.90;99.90
56256;DHT22;57229;51.432;-2.598;2022-10-26T02:57:14;17.90;99.90
56256;DHT22;57229;51.432;-2.598;2022-10-26T02:59:34;17.90;99.90
56256;DHT22;57229;51.432;-2.598;2022-10-26T03:02:02;17.90;99.90
56256;DHT22;57229;51.432;-2.598;2022-10-26T03:04:33;17.90;99.90
56256;DHT22;57229;51.432;-2.598;2022-10-26T03:07:22;17.90;99.90
56256;DHT22;57229;51.432;-2.598;2022-10-26T03:09:49;17.90;99.90
56256;DHT22;57229;51.432;-2.598;2022-10-26T03:12:15;17.90;99.90
56256;DHT22;57229;51.432;-2.598;2022-10-26T03:14:40;17.80;99.90
56256;DHT22;57229;51.432;-2.598;2022-10-26T03:17:07;17.80;99.90
56256;DHT22;57229;51.432;-2.598;2022-10-26T03:19:33;17.80;99.90
56256;DHT22;57229;51.432;-2.598;2022-10-26T03:21:58;17.80;99.90
56256;DHT22;57229;51.432;-2.598;2022-10-26T03:24:24;17.80;99.90
56256;DHT22;57229;51.432;-2.598;2022-10-26T03:26:50;17.80;99.90
56256;DHT22;57229;51.432;-2.598;2022-10-26T03:29:16;17.80;99.90
56256;DHT22;57229;51.432;-2.598;2022-10-26T03:31:41;17.70;99.90
56256;DHT22;57229;51.432;-2.598;2022-10-26T03:34:07;17.70;99.90
56256;DHT22;57229;51.432;-2.598;2022-10-26T03:36:33;17.80;99.90
56256;DHT22;57229;51.432;-2.598;2022-10-26T03:39:01;17.70;99.90
56256;DHT22;57229;51.432;-2.598;2022-10-26T03:41:27;17.70;99.90
56256;DHT22;57229;51.432;-2.598;2022-10-26T03:43:53;17.70;99.90
56256;DHT22;57229;51.432;-2.598;2022-10-26T03:46:21;17.70;99.90
56256;DHT22;57229;51.432;-2.598;2022-10-26T03:48:47;17.70;99.90
56256;DHT22;57229;51.432;-2.598;2022-10-26T03:51:13;17.70;99.90
56256;DHT22;57229;51.432;-2.598;2022-10-26T03:53:38;17.70;99.90
56256;DHT22;57229;51.432;-2.598;2022-10-26T03:56:04;17.70;99.90
56256;DHT22;57229;51.432;-2.598;2022-10-26T03:58:30;17.70;99.90
56256;DHT22;57229;51.432;-2.598;2022-10-26T04:00:56;17.70;99.90
56256;DHT22;57229;51.432;-2.598;2022-10-26T04:03:21;17.70;99.90
56256;DHT22;57229;51.432;-2.598;2022-10-26T04:05:47;17.70;99.90
56256;DHT22;57229;51.432;-2.598;2022-10-26T04:08:13;17.70;99.90
56256;DHT22;57229;51.432;-2.598;2022-10-26T04:10:39;17.70;99.90
56256;DHT22;57229;51.432;-2.598;2022-10-26T04:13:05;17.70;99.90
56256;DHT22;57229;51.432;-2.598;2022-10-26T04:15:30;17.70;99.90
56256;DHT22;57229;51.432;-2.598;2022-10-26T04:17:57;17.60;99.90
56256;DHT22;57229;51.432;-2.598;2022-10-26T04:20:25;17.70;99.90
56256;DHT22;57229;51.432;-2.598;2022-10-26T04:22:57;17.60;99.90
56256;DHT22;57229;51.432;-2.598;2022-10-26T04:25:22;17.60;99.90
56256;DHT22;57229;51.432;-2.598;2022-10-26T04:27:53;17.60;99.90
56256;DHT22;57229;51.432;-2.598;2022-10-26T04:30:19;17.60;99.90
56256;DHT22;57229;51.432;-2.598;2022-10-26T04:32:45;17.60;99.90
56256;DHT22;57229;51.432;-2.598;2022-10-26T04:35:10;17.60;99.90
56256;DHT22;57229;51.432;-2.598;2022-10-26T04:37:36;17.60;99.90
56256;DHT22;57229;51.432;-2.598;2022-10-26T04:40:03;17.60;99.90
56256;DHT22;57229;51.432;-2.598;2022-10-26T04:42:28;17.60;99.90
56256;DHT22;57229;51.432;-2.598;2022-10-26T04:44:58;17.60;99.90
56256;DHT22;57229;51.432;-2.598;2022-10-26T04:47:24;17.60;99.90
56256;DHT22;57229;51.432;-2.598;2022-10-26T04:49:50;17.60;99.90
56256;DHT22;57229;51.432;-2.598;2022-10-26T04:52:19;17.60;99.90
56256;DHT22;57229;51.432;-2.598;2022-10-26T04:54:45;17.60;99.90
56256;DHT22;57229;51.432;-2.598;2022-10-26T04:57:10;17.60;99.90
56256;DHT22;57229;51.432;-2.598;2022-10-26T04:59:36;17.60;99.90
56256;DHT22;57229;51.432;-2.598;2022-10-26T05:02:02;17.60;99.90
56256;DHT22;57229;51.432;-2.598;2022-10-26T05:04:27;17.60;99.90
56256;DHT22;57229;51.432;-2.598;2022-10-26T05:06:53;17.60;99.90
56256;DHT22;57229;51.432;-2.598;2022-10-26T05:09:19;17.60;99.90
56256;DHT22;57229;51.432;-2.598;2022-10-26T05:11:44;17.60;99.90
56256;DHT22;57229;51.432;-2.598;2022-10-26T05:14:10;17.60;99.90
56256;DHT22;57229;51.432;-2.598;2022-10-26T05:16:37;17.60;99.90
56256;DHT22;57229;51.432;-2.598;2022-10-26T05:19:03;17.60;99.90
56256;DHT22;57229;51.432;-2.598;2022-10-26T05:21:30;17.50;99.90
56256;DHT22;57229;51.432;-2.598;2022-10-26T05:23:57;17.50;99.90
56256;DHT22;57229;51.432;-2.598;2022-10-26T05:26:23;17.60;99.90
56256;DHT22;57229;51.432;-2.598;2022-10-26T05:28:56;17.60;99.90
56256;DHT22;57229;51.432;-2.598;2022-10-26T05:31:26;17.60;99.90
56256;DHT22;57229;51.432;-2.598;2022-10-26T05:34:06;17.50;99.90
56256;DHT22;57229;51.432;-2.598;2022-10-26T05:36:32;17.50;99.90
56256;DHT22;57229;51.432;-2.598;2022-10-26T05:38:58;17.60;99.90
56256;DHT22;57229;51.432;-2.598;2022-10-26T05:41:24;17.60;99.90
56256;DHT22;57229;51.432;-2.598;2022-10-26T05:43:49;17.50;99.90
56256;DHT22;57229;51.432;-2.598;2022-10-26T05:46:15;17.60;99.90
56256;DHT22;57229;51.432;-2.598;2022-10-26T05:48:41;17.50;99.90
56256;DHT22;57229;51.432;-2.598;2022-10-26T05:51:07;17.50;99.90
56256;DHT22;57229;51.432;-2.598;2022-10-26T05:53:32;17.50;99.90
56256;DHT22;57229;51.432;-2.598;2022-10-26T05:56:00;17.50;99.90
56256;DHT22;57229;51.432;-2.598;2022-10-26T05:58:27;17.50;99.90
56256;DHT22;57229;51.432;-2.598;2022-10-26T06:01:11;17.50;99.90
56256;DHT22;57229;51.432;-2.598;2022-10-26T06:06:38;17.60;99.90
56256;DHT22;57229;51.432;-2.598;2022-10-26T06:09:10;17.60;99.90
56256;DHT22;57229;51.432;-2.598;2022-10-26T06:11:35;17.60;99.90
56256;DHT22;57229;51.432;-2.598;2022-10-26T06:14:01;17.60;99.90
56256;DHT22;57229;51.432;-2.598;2022-10-26T06:19:05;17.60;99.90
56256;DHT22;57229;51.432;-2.598;2022-10-26T06:30:05;17.60;99.90
56256;DHT22;57229;51.432;-2.598;2022-10-26T06:32:32;17.60;99.90
56256;DHT22;57229;51.432;-2.598;2022-10-26T06:35:23;17.60;99.90
56256;DHT22;57229;51.432;-2.598;2022-10-26T06:37:51;17.60;99.90
56256;DHT22;57229;51.432;-2.598;2022-10-26T06:40:18;17.60;99.90
56256;DHT22;57229;51.432;-2.598;2022-10-26T06:42:45;17.60;99.90
56256;DHT22;57229;51.432;-2.598;2022-10-26T06:45:12;17.60;99.90
56256;DHT22;57229;51.432;-2.598;2022-10-26T06:52:57;17.60;99.90
56256;DHT22;57229;51.432;-2.598;2022-10-26T06:55:25;17.60;99.90
56256;DHT22;57229;51.432;-2.598;2022-10-26T06:57:52;17.60;99.90
56256;DHT22;57229;51.432;-2.598;2022-10-26T07:00:22;17.60;99.90
56256;DHT22;57229;51.432;-2.598;2022-10-26T07:02:49;17.60;99.90
56256;DHT22;57229;51.432;-2.598;2022-10-26T07:05:16;17.60;99.90
56256;DHT22;57229;51.432;-2.598;2022-10-26T07:07:46;17.60;99.90
56256;DHT22;57229;51.432;-2.598;2022-10-26T07:10:13;17.60;99.90
56256;DHT22;57229;51.432;-2.598;2022-10-26T07:12:39;17.60;99.90
56256;DHT22;57229;51.432;-2.598;2022-10-26T07:15:06;17.70;99.90
56256;DHT22;57229;51.432;-2.598;2022-10-26T07:17:43;17.70;99.90
56256;DHT22;57229;51.432;-2.598;2022-10-26T07:20:11;17.70;99.90
56256;DHT22;57229;51.432;-2.598;2022-10-26T07:22:36;17.70;99.90
56256;DHT22;57229;51.432;-2.598;2022-10-26T07:25:02;17.70;99.90
56256;DHT22;57229;51.432;-2.598;2022-10-26T07:27:28;17.70;99.90
56256;DHT22;57229;51.432;-2.598;2022-10-26T07:29:54;17.70;99.90
56256;DHT22;57229;51.432;-2.598;2022-10-26T07:32:19;17.70;99.90
56256;DHT22;57229;51.432;-2.598;2022-10-26T07:34:45;17.70;99.90
56256;DHT22;57229;51.432;-2.598;2022-10-26T07:37:11;17.70;99.90
56256;DHT22;57229;51.432;-2.598;2022-10-26T07:39:36;17.70;99.90
56256;DHT22;57229;51.432;-2.598;2022-10-26T07:42:05;17.70;99.90
56256;DHT22;57229;51.432;-2.598;2022-10-26T07:44:51;17.70;99.90
56256;DHT22;57229;51.432;-2.598;2022-10-26T07:47:17;17.80;99.90
56256;DHT22;57229;51.432;-2.598;2022-10-26T07:52:48;17.80;99.90
56256;DHT22;57229;51.432;-2.598;2022-10-26T07:55:14;17.80;99.90
56256;DHT22;57229;51.432;-2.598;2022-10-26T07:57:40;17.80;99.90
56256;DHT22;57229;51.432;-2.598;2022-10-26T08:00:08;17.80;99.90
56256;DHT22;57229;51.432;-2.598;2022-10-26T08:02:34;17.90;99.90
56256;DHT22;57229;51.432;-2.598;2022-10-26T08:05:00;17.90;99.90
56256;DHT22;57229;51.432;-2.598;2022-10-26T08:07:33;17.90;99.90
56256;DHT22;57229;51.432;-2.598;2022-10-26T08:09:59;17.90;99.90
56256;DHT22;57229;51.432;-2.598;2022-10-26T08:12:25;17.90;99.90
56256;DHT22;57229;51.432;-2.598;2022-10-26T08:14:50;18.00;99.90
56256;DHT22;57229;51.432;-2.598;2022-10-26T08:17:16;17.90;99.90
56256;DHT22;57229;51.432;-2.598;2022-10-26T08:19:42;17.90;99.90
56256;DHT22;57229;51.432;-2.598;2022-10-26T08:22:10;17.90;99.90
56256;DHT22;57229;51.432;-2.598;2022-10-26T08:24:36;17.90;99.90
56256;DHT22;57229;51.432;-2.598;2022-10-26T08:27:02;17.90;99.90
56256;DHT22;57229;51.432;-2.598;2022-10-26T08:29:34;17.90;99.90
56256;DHT22;57229;51.432;-2.598;2022-10-26T08:32:01;17.90;99.90
56256;DHT22;57229;51.432;-2.598;2022-10-26T08:34:31;17.90;99.90
56256;DHT22;57229;51.432;-2.598;2022-10-26T08:37:01;17.90;99.90
56256;DHT22;57229;51.432;-2.598;2022-10-26T08:39:33;17.90;99.90
56256;DHT22;57229;51.432;-2.598;2022-10-26T08:42:11;17.90;99.90
56256;DHT22;57229;51.432;-2.598;2022-10-26T08:44:46;17.90;99.90
56256;DHT22;57229;51.432;-2.598;2022-10-26T08:47:18;17.90;99.90
56256;DHT22;57229;51.432;-2.598;2022-10-26T08:55:45;17.90;99.90
56256;DHT22;57229;51.432;-2.598;2022-10-26T08:58:19;17.90;99.90
56256;DHT22;57229;51.432;-2.598;2022-10-26T09:01:07;18.00;99.90
56256;DHT22;57229;51.432;-2.598;2022-10-26T09:03:55;18.00;99.90
56256;DHT22;57229;51.432;-2.598;2022-10-26T09:06:42;18.00;99.90
56256;DHT22;57229;51.432;-2.598;2022-10-26T09:09:16;18.00;99.90
56256;DHT22;57229;51.432;-2.598;2022-10-26T09:12:00;18.00;99.90
56256;DHT22;57229;51.432;-2.598;2022-10-26T09:17:34;18.10;99.90
56256;DHT22;57229;51.432;-2.598;2022-10-26T09:21:07;18.20;99.90
56256;DHT22;57229;51.432;-2.598;2022-10-26T09:23:39;18.20;99.90
56256;DHT22;57229;51.432;-2.598;2022-10-26T09:26:16;18.40;99.90
56256;DHT22;57229;51.432;-2.598;2022-10-26T09:28:50;18.70;99.90
56256;DHT22;57229;51.432;-2.598;2022-10-26T09:31:21;19.00;99.60
56256;DHT22;57229;51.432;-2.598;2022-10-26T09:33:48;19.30;98.90
56256;DHT22;57229;51.432;-2.598;2022-10-26T09:36:19;19.70;98.20
56256;DHT22;57229;51.432;-2.598;2022-10-26T09:39:20;20.00;97.60
56256;DHT22;57229;51.432;-2.598;2022-10-26T09:45:17;20.50;96.50
56256;DHT22;57229;51.432;-2.598;2022-10-26T09:47:48;20.70;96.00
56256;DHT22;57229;51.432;-2.598;2022-10-26T09:50:27;21.00;95.60
56256;DHT22;57229;51.432;-2.598;2022-10-26T09:52:54;21.10;95.20
56256;DHT22;57229;51.432;-2.598;2022-10-26T09:55:19;21.20;95.00
56256;DHT22;57229;51.432;-2.598;2022-10-26T09:57:50;21.40;94.70
56256;DHT22;57229;51.432;-2.598;2022-10-26T10:00:21;21.50;94.50
56256;DHT22;57229;51.432;-2.598;2022-10-26T10:02:53;21.60;94.20
56256;DHT22;57229;51.432;-2.598;2022-10-26T10:08:29;21.80;93.70
56256;DHT22;57229;51.432;-2.598;2022-10-26T10:11:02;22.00;93.50
56256;DHT22;57229;51.432;-2.598;2022-10-26T10:13:40;22.10;93.30
56256;DHT22;57229;51.432;-2.598;2022-10-26T10:18:40;22.20;92.90
56256;DHT22;57229;51.432;-2.598;2022-10-26T10:21:07;22.40;92.80
56256;DHT22;57229;51.432;-2.598;2022-10-26T10:23:52;22.50;92.50
56256;DHT22;57229;51.432;-2.598;2022-10-26T10:26:20;22.60;92.20
56256;DHT22;57229;51.432;-2.598;2022-10-26T10:29:00;22.80;92.10
56256;DHT22;57229;51.432;-2.598;2022-10-26T10:31:28;22.90;91.90
56256;DHT22;57229;51.432;-2.598;2022-10-26T10:33:54;23.10;91.60
56256;DHT22;57229;51.432;-2.598;2022-10-26T10:36:23;23.20;91.40
56256;DHT22;57229;51.432;-2.598;2022-10-26T10:38:51;23.40;91.20
56256;DHT22;57229;51.432;-2.598;2022-10-26T10:41:32;23.50;91.00
56256;DHT22;57229;51.432;-2.598;2022-10-26T10:44:27;23.50;91.00
56256;DHT22;57229;51.432;-2.598;2022-10-26T10:47:05;23.70;90.70
56256;DHT22;57229;51.432;-2.598;2022-10-26T10:49:34;23.80;90.50
56256;DHT22;57229;51.432;-2.598;2022-10-26T10:52:25;23.90;90.30
56256;DHT22;57229;51.432;-2.598;2022-10-26T10:54:59;24.00;90.10
56256;DHT22;57229;51.432;-2.598;2022-10-26T11:00:19;24.30;89.20
56256;DHT22;57229;51.432;-2.598;2022-10-26T11:03:20;24.40;88.80
56256;DHT22;57229;51.432;-2.598;2022-10-26T11:05:58;24.50;88.30
56256;DHT22;57229;51.432;-2.598;2022-10-26T11:16:04;24.60;88.50
56256;DHT22;57229;51.432;-2.598;2022-10-26T11:18:35;24.60;87.90
56256;DHT22;57229;51.432;-2.598;2022-10-26T11:21:16;24.60;88.20
56256;DHT22;57229;51.432;-2.598;2022-10-26T11:29:50;24.40;88.80
56256;DHT22;57229;51.432;-2.598;2022-10-26T11:32:26;24.30;89.20
56256;DHT22;57229;51.432;-2.598;2022-10-26T11:40:56;24.00;90.10
56256;DHT22;57229;51.432;-2.598;2022-10-26T11:43:37;23.90;90.20
56256;DHT22;57229;51.432;-2.598;2022-10-26T11:48:46;23.60;90.80
56256;DHT22;57229;51.432;-2.598;2022-10-26T11:54:00;23.30;91.20
56256;DHT22;57229;51.432;-2.598;2022-10-26T11:56:39;23.10;91.50
56256;DHT22;57229;51.432;-2.598;2022-10-26T11:59:33;23.00;91.80
56256;DHT22;57229;51.432;-2.598;2022-10-26T12:08:05;22.60;92.40
56256;DHT22;57229;51.432;-2.598;2022-10-26T12:10:43;22.60;92.50
56256;DHT22;57229;51.432;-2.598;2022-10-26T12:15:55;22.50;92.70
56256;DHT22;57229;51.432;-2.598;2022-10-26T12:18:38;22.40;92.80
56256;DHT22;57229;51.432;-2.598;2022-10-26T12:21:30;22.40;92.80
56256;DHT22;57229;51.432;-2.598;2022-10-26T12:24:03;22.40;92.80
56256;DHT22;57229;51.432;-2.598;2022-10-26T12:26:51;22.40;92.80
56256;DHT22;57229;51.432;-2.598;2022-10-26T12:31:54;22.30;93.10
56256;DHT22;57229;51.432;-2.598;2022-10-26T12:52:53;22.20;93.70
56256;DHT22;57229;51.432;-2.598;2022-10-26T13:06:36;22.40;93.50
56256;DHT22;57229;51.432;-2.598;2022-10-26T13:09:19;22.50;93.30
56256;DHT22;57229;51.432;-2.598;2022-10-26T13:11:52;22.40;93.30
56256;DHT22;57229;51.432;-2.598;2022-10-26T13:14:34;22.50;93.40
56256;DHT22;57229;51.432;-2.598;2022-10-26T13:17:04;22.50;93.10
56256;DHT22;57229;51.432;-2.598;2022-10-26T13:19:46;22.50;93.20
56256;DHT22;57229;51.432;-2.598;2022-10-26T13:22:29;22.60;93.10
56256;DHT22;57229;51.432;-2.598;2022-10-26T13:25:03;22.60;92.90
56256;DHT22;57229;51.432;-2.598;2022-10-26T13:33:08;22.70;92.60
56256;DHT22;57229;51.432;-2.598;2022-10-26T13:35:50;22.70;92.60
56256;DHT22;57229;51.432;-2.598;2022-10-26T13:38:21;22.70;92.40
56256;DHT22;57229;51.432;-2.598;2022-10-26T13:41:06;22.80;92.30
56256;DHT22;57229;51.432;-2.598;2022-10-26T13:43:46;22.80;92.30
56256;DHT22;57229;51.432;-2.598;2022-10-26T13:46:24;22.80;92.40
56256;DHT22;57229;51.432;-2.598;2022-10-26T13:49:39;22.80;92.40
56256;DHT22;57229;51.432;-2.598;2022-10-26T13:52:18;22.80;92.40
56256;DHT22;57229;51.432;-2.598;2022-10-26T13:54:54;22.80;92.40
56256;DHT22;57229;51.432;-2.598;2022-10-26T13:57:34;22.70;92.60
56256;DHT22;57229;51.432;-2.598;2022-10-26T14:00:18;22.60;92.80
56256;DHT22;57229;51.432;-2.598;2022-10-26T14:02:44;22.60;92.80
56256;DHT22;57229;51.432;-2.598;2022-10-26T14:05:14;22.60;93.00
56256;DHT22;57229;51.432;-2.598;2022-10-26T14:08:10;22.60;92.90
56256;DHT22;57229;51.432;-2.598;2022-10-26T14:10:45;22.60;92.90
56256;DHT22;57229;51.432;-2.598;2022-10-26T14:13:16;22.70;92.80
56256;DHT22;57229;51.432;-2.598;2022-10-26T14:15:44;22.70;92.80
56256;DHT22;57229;51.432;-2.598;2022-10-26T14:19:04;22.70;92.80
56256;DHT22;57229;51.432;-2.598;2022-10-26T14:21:20;22.60;92.90
56256;DHT22;57229;51.432;-2.598;2022-10-26T14:26:46;22.60;93.30
56256;DHT22;57229;51.432;-2.598;2022-10-26T14:29:18;22.50;93.20
56256;DHT22;57229;51.432;-2.598;2022-10-26T14:31:49;22.50;93.40
56256;DHT22;57229;51.432;-2.598;2022-10-26T14:34:17;22.50;93.40
56256;DHT22;57229;51.432;-2.598;2022-10-26T14:36:51;22.50;93.40
56256;DHT22;57229;51.432;-2.598;2022-10-26T14:41:55;22.30;93.70
56256;DHT22;57229;51.432;-2.598;2022-10-26T14:44:23;22.20;93.90
56256;DHT22;57229;51.432;-2.598;2022-10-26T14:46:50;22.00;94.00
56256;DHT22;57229;51.432;-2.598;2022-10-26T14:49:26;21.90;94.20
56256;DHT22;57229;51.432;-2.598;2022-10-26T14:51:57;21.90;94.50
56256;DHT22;57229;51.432;-2.598;2022-10-26T14:54:27;21.80;94.60
56256;DHT22;57229;51.432;-2.598;2022-10-26T14:56:53;21.70;94.80
56256;DHT22;57229;51.432;-2.598;2022-10-26T14:59:29;21.70;95.00
56256;DHT22;57229;51.432;-2.598;2022-10-26T15:07:32;21.60;95.50
56256;DHT22;57229;51.432;-2.598;2022-10-26T15:09:59;21.60;95.40
56256;DHT22;57229;51.432;-2.598;2022-10-26T15:15:06;21.50;95.50
56256;DHT22;57229;51.432;-2.598;2022-10-26T15:17:37;21.50;95.80
56256;DHT22;57229;51.432;-2.598;2022-10-26T15:20:05;21.50;95.80
56256;DHT22;57229;51.432;-2.598;2022-10-26T15:22:32;21.50;95.50
56256;DHT22;57229;51.432;-2.598;2022-10-26T15:25:03;21.60;95.50
56256;DHT22;57229;51.432;-2.598;2022-10-26T15:27:29;21.50;95.50
56256;DHT22;57229;51.432;-2.598;2022-10-26T15:30:18;21.40;95.60
56256;DHT22;57229;51.432;-2.598;2022-10-26T15:32:44;21.30;95.90
56256;DHT22;57229;51.432;-2.598;2022-10-26T15:35:23;21.20;96.10
56256;DHT22;57229;51.432;-2.598;2022-10-26T15:38:10;21.20;96.30
56256;DHT22;57229;51.432;-2.598;2022-10-26T15:40:41;21.00;96.40
56256;DHT22;57229;51.432;-2.598;2022-10-26T15:43:09;21.00;96.50
56256;DHT22;57229;51.432;-2.598;2022-10-26T15:45:43;20.90;96.60
56256;DHT22;57229;51.432;-2.598;2022-10-26T15:48:26;20.80;96.70
56256;DHT22;57229;51.432;-2.598;2022-10-26T15:50:57;20.80;96.80
56256;DHT22;57229;51.432;-2.598;2022-10-26T15:53:24;20.70;97.00
56256;DHT22;57229;51.432;-2.598;2022-10-26T15:55:56;20.60;97.00
56256;DHT22;57229;51.432;-2.598;2022-10-26T15:58:22;20.60;97.20
56256;DHT22;57229;51.432;-2.598;2022-10-26T16:00:48;20.60;97.20
56256;DHT22;57229;51.432;-2.598;2022-10-26T16:03:25;20.50;97.30
56256;DHT22;57229;51.432;-2.598;2022-10-26T16:06:01;20.50;97.40
56256;DHT22;57229;51.432;-2.598;2022-10-26T16:08:29;20.40;97.50
56256;DHT22;57229;51.432;-2.598;2022-10-26T16:10:55;20.40;97.50
56256;DHT22;57229;51.432;-2.598;2022-10-26T16:13:25;20.30;97.50
56256;DHT22;57229;51.432;-2.598;2022-10-26T16:15:56;20.30;97.70
56256;DHT22;57229;51.432;-2.598;2022-10-26T16:18:25;20.30;97.80
56256;DHT22;57229;51.432;-2.598;2022-10-26T16:20:51;20.30;97.80
56256;DHT22;57229;51.432;-2.598;2022-10-26T16:23:17;20.30;97.80
56256;DHT22;57229;51.432;-2.598;2022-10-26T16:25:45;20.20;97.90
56256;DHT22;57229;51.432;-2.598;2022-10-26T16:28:15;20.20;97.90
56256;DHT22;57229;51.432;-2.598;2022-10-26T16:30:42;20.20;97.90
56256;DHT22;57229;51.432;-2.598;2022-10-26T16:33:08;20.10;98.00
56256;DHT22;57229;51.432;-2.598;2022-10-26T16:35:33;20.10;98.10
56256;DHT22;57229;51.432;-2.598;2022-10-26T16:37:59;20.10;98.20
56256;DHT22;57229;51.432;-2.598;2022-10-26T16:41:03;20.10;98.30
56256;DHT22;57229;51.432;-2.598;2022-10-26T16:43:41;20.00;98.30
56256;DHT22;57229;51.432;-2.598;2022-10-26T16:48:35;20.00;98.40
56256;DHT22;57229;51.432;-2.598;2022-10-26T16:51:21;19.90;98.40
56256;DHT22;57229;51.432;-2.598;2022-10-26T16:53:47;19.90;98.50
56256;DHT22;57229;51.432;-2.598;2022-10-26T16:56:19;19.90;98.60
56256;DHT22;57229;51.432;-2.598;2022-10-26T16:58:45;19.80;98.60
56256;DHT22;57229;51.432;-2.598;2022-10-26T17:01:12;19.80;98.70
56256;DHT22;57229;51.432;-2.598;2022-10-26T17:03:43;19.80;98.70
56256;DHT22;57229;51.432;-2.598;2022-10-26T17:06:09;19.80;98.70
56256;DHT22;57229;51.432;-2.598;2022-10-26T17:08:35;19.80;98.80
56256;DHT22;57229;51.432;-2.598;2022-10-26T17:11:07;19.70;98.80
56256;DHT22;57229;51.432;-2.598;2022-10-26T17:13:34;19.70;98.90
56256;DHT22;57229;51.432;-2.598;2022-10-26T17:16:04;19.70;99.00
56256;DHT22;57229;51.432;-2.598;2022-10-26T17:18:30;19.70;99.10
56256;DHT22;57229;51.432;-2.598;2022-10-26T17:21:03;19.60;99.10
56256;DHT22;57229;51.432;-2.598;2022-10-26T17:23:29;19.60;99.20
56256;DHT22;57229;51.432;-2.598;2022-10-26T17:26:00;19.60;99.20
56256;DHT22;57229;51.432;-2.598;2022-10-26T17:28:27;19.60;99.20
56256;DHT22;57229;51.432;-2.598;2022-10-26T17:31:01;19.60;99.30
56256;DHT22;57229;51.432;-2.598;2022-10-26T17:33:27;19.50;99.30
56256;DHT22;57229;51.432;-2.598;2022-10-26T17:35:53;19.50;99.30
56256;DHT22;57229;51.432;-2.598;2022-10-26T17:38:19;19.50;99.40
56256;DHT22;57229;51.432;-2.598;2022-10-26T17:40:45;19.50;99.40
56256;DHT22;57229;51.432;-2.598;2022-10-26T17:43:13;19.50;99.50
56256;DHT22;57229;51.432;-2.598;2022-10-26T17:45:39;19.50;99.50
56256;DHT22;57229;51.432;-2.598;2022-10-26T17:48:05;19.50;99.60
56256;DHT22;57229;51.432;-2.598;2022-10-26T17:50:30;19.50;99.70
56256;DHT22;57229;51.432;-2.598;2022-10-26T17:52:56;19.50;99.70
56256;DHT22;57229;51.432;-2.598;2022-10-26T17:55:22;19.50;99.80
56256;DHT22;57229;51.432;-2.598;2022-10-26T17:57:47;19.40;99.80
56256;DHT22;57229;51.432;-2.598;2022-10-26T18:00:14;19.40;99.90
56256;DHT22;57229;51.432;-2.598;2022-10-26T18:02:40;19.40;99.70
56256;DHT22;57229;51.432;-2.598;2022-10-26T18:05:06;19.40;99.60
56256;DHT22;57229;51.432;-2.598;2022-10-26T18:07:32;19.40;99.60
56256;DHT22;57229;51.432;-2.598;2022-10-26T18:09:58;19.40;99.60
56256;DHT22;57229;51.432;-2.598;2022-10-26T18:12:24;19.40;99.60
56256;DHT22;57229;51.432;-2.598;2022-10-26T18:14:50;19.40;99.60
56256;DHT22;57229;51.432;-2.598;2022-10-26T18:17:21;19.40;99.60
56256;DHT22;57229;51.432;-2.598;2022-10-26T18:19:48;19.40;99.60
56256;DHT22;57229;51.432;-2.598;2022-10-26T18:22:13;19.40;99.60
56256;DHT22;57229;51.432;-2.598;2022-10-26T18:24:40;19.40;99.60
56256;DHT22;57229;51.432;-2.598;2022-10-26T18:27:13;19.40;99.70
56256;DHT22;57229;51.432;-2.598;2022-10-26T18:29:39;19.40;99.70
56256;DHT22;57229;51.432;-2.598;2022-10-26T18:32:05;19.30;99.70
56256;DHT22;57229;51.432;-2.598;2022-10-26T18:34:32;19.30;99.70
56256;DHT22;57229;51.432;-2.598;2022-10-26T18:36:59;19.30;99.70
56256;DHT22;57229;51.432;-2.598;2022-10-26T18:39:28;19.30;99.80